^^
Datos históricos de la estación: Murcia-Puente Tocinos
Diario Informe para Noviembre 4, 2019 Unidades:  Métrico    Ingés   Ambas
Diario Semanal Mensual Anual
  Máxima: Mínima: Promedio:
Temperatura: 27 °C 15.9 °C 21.2 °C
Punto de rocio: 12.8 °C 7.6 °C 9.5 °C
Humedad: 65% 33.7% 48%
Velocidad viento: 18km/h 0km/h 7.7km/h
Racha viento: 35.4km/h - -
Viento- - SO
Presión: 1011.3 hPa 1005.9 hPa -
Precipitación: 0.0 mm    
 
 
Tabla de datos para Noviembre 4, 2019
Hora Temperatura Punto de rocio Presión Viento Velocidad viento Racha viento Humedad Intensidad lluvia(por hora) Nubes
00:04 19.8 °C 9.4 °C 1010.8 hPa SO 6.1 km/h 11.1 km/h 51% 0.0 mm
00:09 19.8 °C 9.3 °C 1011.0 hPa Sur 6.5 km/h 11.3 km/h 51% 0.0 mm
00:14 19.7 °C 9.3 °C 1011.0 hPa SSO 5.3 km/h 8 km/h 51% 0.0 mm
00:19 19.6 °C 9.2 °C 1011.0 hPa SO 5 km/h 7.4 km/h 51% 0.0 mm
00:24 19.6 °C 9.1 °C 1011.1 hPa OSO 4.1 km/h 8 km/h 51% 0.0 mm
00:29 19.4 °C 9.1 °C 1011.1 hPa SSO 3.9 km/h 7.4 km/h 51.4% 0.0 mm
00:34 19.3 °C 9.3 °C 1011.1 hPa Sur 3.4 km/h 8.7 km/h 52.6% 0.0 mm
00:39 19.1 °C 9.3 °C 1011.2 hPa Sur 3.2 km/h 9.7 km/h 53% 0.0 mm
00:44 19 °C 9.2 °C 1011.2 hPa Sur 4.4 km/h 8 km/h 53% 0.0 mm
00:49 18.9 °C 9.1 °C 1011.2 hPa Sur 4.7 km/h 8 km/h 53% 0.0 mm
00:54 18.9 °C 9.1 °C 1011.2 hPa SSE 5.5 km/h 10 km/h 53% 0.0 mm
00:59 18.9 °C 9.1 °C 1011.1 hPa SSE 5.8 km/h 9.7 km/h 53% 0.0 mm
01:04 18.9 °C 9.1 °C 1011.1 hPa SSO 5.8 km/h 8 km/h 53% 0.0 mm
01:09 18.8 °C 9 °C 1011.1 hPa OSO 5.8 km/h 8 km/h 53% 0.0 mm
01:14 18.8 °C 9 °C 1011.1 hPa SSO 3.8 km/h 8.4 km/h 53% 0.0 mm
01:19 18.8 °C 9 °C 1011.1 hPa Sur 3.2 km/h 9.5 km/h 52.9% 0.0 mm
01:24 18.8 °C 8.8 °C 1011.1 hPa SSE 5.2 km/h 9.7 km/h 52.1% 0.0 mm
01:29 18.9 °C 8.5 °C 1011.1 hPa SSO 5.8 km/h 11.1 km/h 50.9% 0.0 mm
01:34 19.1 °C 8.3 °C 1011.1 hPa SO 6.3 km/h 14.8 km/h 49.4% 0.0 mm
01:39 19.3 °C 8.1 °C 1011.2 hPa SO 6.5 km/h 14.5 km/h 48.4% 0.0 mm
01:44 19.4 °C 8.1 °C 1011.2 hPa SSO 6.8 km/h 13.7 km/h 48% 0.0 mm
01:49 19.3 °C 8.3 °C 1011.2 hPa SSE 6.9 km/h 14.5 km/h 48.8% 0.0 mm
01:54 19.1 °C 8.2 °C 1011.3 hPa SSE 6.9 km/h 16.1 km/h 49.3% 0.0 mm
01:59 18.9 °C 8.2 °C 1011.3 hPa SSE 6.9 km/h 16.7 km/h 49.7% 0.0 mm
02:04 18.8 °C 8.2 °C 1011.3 hPa Sur 9.7 km/h 16.1 km/h 50% 0.0 mm
02:09 18.7 °C 8 °C 1011.3 hPa Sur 10.3 km/h 14.5 km/h 49.9% 0.0 mm
02:14 18.8 °C 7.9 °C 1011.0 hPa SSO 8.8 km/h 13.7 km/h 49% 0.0 mm
02:19 18.9 °C 8 °C 1011.0 hPa Sur 8.4 km/h 14.5 km/h 48.9% 0.0 mm
02:24 19 °C 7.8 °C 1011.0 hPa Sur 6.9 km/h 9.7 km/h 48.3% 0.0 mm
02:29 19 °C 7.8 °C 1010.9 hPa SSE 6.5 km/h 8 km/h 48.2% 0.0 mm
02:34 19 °C 8 °C 1010.9 hPa SSE 3.7 km/h 8 km/h 48.9% 0.0 mm
02:39 18.9 °C 7.8 °C 1010.9 hPa SSE 2.9 km/h   48.5% 0.0 mm
02:44 18.9 °C 7.9 °C 1010.9 hPa Sur 0.6 km/h 2.9 km/h 48.8% 0.0 mm
02:49 18.9 °C 7.7 °C 1010.9 hPa Calm   3.7 km/h 48.2% 0.0 mm
02:54 18.9 °C 7.9 °C 1010.9 hPa Calm   3.2 km/h 48.8% 0.0 mm
02:59 18.8 °C 7.9 °C 1010.8 hPa Calm     49.2% 0.0 mm
03:04 18.8 °C 8.1 °C 1010.8 hPa Calm     49.9% 0.0 mm
03:09 18.7 °C 8 °C 1010.8 hPa Calm     49.8% 0.0 mm
03:14 18.6 °C 8.2 °C 1010.8 hPa Calm     50.8% 0.0 mm
03:19 18.4 °C 8.3 °C 1010.8 hPa Calm     51.5% 0.0 mm
03:24 18.3 °C 8.1 °C 1010.9 hPa Calm     51.4% 0.0 mm
03:29 18.2 °C 8.2 °C 1010.9 hPa Calm   5.6 km/h 52.1% 0.0 mm
03:34 18.1 °C 8.4 °C 1010.9 hPa Calm   5 km/h 52.9% 0.0 mm
03:39 18 °C 8.3 °C 1010.9 hPa Calm   7.4 km/h 53.2% 0.0 mm
03:44 17.9 °C 8.3 °C 1010.9 hPa SE 2.6 km/h 8 km/h 53.3% 0.0 mm
03:49 17.9 °C 8.2 °C 1010.9 hPa SE 3.2 km/h 8 km/h 53% 0.0 mm
03:54 17.9 °C 8.3 °C 1010.9 hPa ESE 4.3 km/h 8 km/h 53.4% 0.0 mm
03:59 17.8 °C 8.4 °C 1010.6 hPa SE 4.7 km/h 9.3 km/h 54% 0.0 mm
04:04 17.7 °C 8.2 °C 1010.6 hPa SSE 4.7 km/h 9.7 km/h 54% 0.0 mm
04:09 17.6 °C 8.2 °C 1010.6 hPa Sur 4.7 km/h 9.7 km/h 54% 0.0 mm
04:14 17.6 °C 8.2 °C 1010.5 hPa Oeste 4.7 km/h 6.9 km/h 54% 0.0 mm
04:19 17.7 °C 8.3 °C 1010.5 hPa ONO 4.7 km/h 9.3 km/h 54% 0.0 mm
04:24 17.7 °C 8.3 °C 1010.5 hPa SSO 4.7 km/h 9.7 km/h 54% 0.0 mm
04:29 17.8 °C 8.4 °C 1010.2 hPa SSE 4.7 km/h 11.1 km/h 54% 0.0 mm
04:34 17.8 °C 8.4 °C 1010.2 hPa SSE 6.4 km/h 11.3 km/h 53.9% 0.0 mm
04:39 18.1 °C 8.4 °C 1010.3 hPa Sur 6.9 km/h 11.3 km/h 53% 0.0 mm
04:44 18.2 °C 8.4 °C 1010.3 hPa SSE 6.6 km/h 11.3 km/h 53% 0.0 mm
04:49 18.1 °C 8.4 °C 1010.3 hPa Sur 6.5 km/h 11.3 km/h 53.1% 0.0 mm
04:54 18.1 °C 8.5 °C 1010.5 hPa Sur 6.8 km/h 14.8 km/h 53.5% 0.0 mm
04:59 18.2 °C 8.4 °C 1010.5 hPa SSE 6.9 km/h 14.5 km/h 52.7% 0.0 mm
05:04 18.4 °C 8.4 °C 1010.5 hPa ESE 8.1 km/h 11.3 km/h 52% 0.0 mm
05:09 18.4 °C 8.4 °C 1010.5 hPa ESE 8.4 km/h 11.1 km/h 52.3% 0.0 mm
05:14 18.2 °C 8.5 °C 1010.5 hPa SO 6.3 km/h 11.3 km/h 53% 0.0 mm
05:19 18.1 °C 8.6 °C 1010.5 hPa Sur 5.8 km/h 9.3 km/h 53.6% 0.0 mm
05:24 18.1 °C 8.6 °C 1010.5 hPa SE 4.3 km/h 9.7 km/h 54% 0.0 mm
05:29 18.1 °C 8.6 °C 1010.2 hPa SSE 3.9 km/h 9.3 km/h 54% 0.0 mm
05:34 18 °C 8.6 °C 1010.2 hPa Sur 4.7 km/h 9.7 km/h 54% 0.0 mm
05:39 17.9 °C 8.7 °C 1010.3 hPa ONO 5 km/h 9.7 km/h 55% 0.0 mm
05:44 17.7 °C 8.6 °C 1010.3 hPa NNO 4.1 km/h 8 km/h 55.2% 0.0 mm
05:49 17.5 °C 8.6 °C 1010.3 hPa ONO 3.9 km/h 7.4 km/h 56% 0.0 mm
05:54 17.4 °C 8.5 °C 1010.4 hPa OSO 3.9 km/h 8 km/h 56% 0.0 mm
05:59 17.3 °C 8.5 °C 1010.4 hPa Oeste 3.9 km/h 7.4 km/h 56.3% 0.0 mm
06:04 17.3 °C 8.6 °C 1010.4 hPa Oeste 3.9 km/h 8 km/h 56.6% 0.0 mm
06:09 17.3 °C 8.7 °C 1010.4 hPa Oeste 3.9 km/h 5.8 km/h 56.9% 0.0 mm
06:14 17.3 °C 8.7 °C 1010.2 hPa OSO 3.1 km/h 7.4 km/h 57% 0.0 mm
06:19 17.2 °C 8.7 °C 1010.2 hPa Oeste 2.9 km/h 8 km/h 57.7% 0.0 mm
06:24 16.9 °C 8.7 °C 1010.5 hPa OSO 3.6 km/h 8 km/h 58.6% 0.0 mm
06:29 16.8 °C 8.7 °C 1010.5 hPa SSO 3.9 km/h 8 km/h 59% 0.0 mm
06:34 16.8 °C 8.7 °C 1010.5 hPa SSO 3.9 km/h 8 km/h 59% 0.0 mm
06:39 16.8 °C 9 °C 1010.5 hPa Sur 3.9 km/h 14 km/h 60.1% 0.0 mm
06:44 16.5 °C 9 °C 1010.4 hPa Sur 3.9 km/h 15.6 km/h 61.3% 0.0 mm
06:49 16 °C 8.9 °C 1010.4 hPa SSO 3.9 km/h 16.1 km/h 62.8% 0.0 mm
06:54 16 °C 8.9 °C 1010.5 hPa SSO 7.7 km/h 14.5 km/h 63% 0.0 mm
06:59 16.2 °C 9.1 °C 1010.5 hPa SO 8.7 km/h 11.3 km/h 62.9% 0.0 mm
07:04 16.3 °C 9.1 °C 1010.5 hPa SO 6.3 km/h 11.3 km/h 62% 0.0 mm
07:09 16.4 °C 9.1 °C 1010.5 hPa Oeste 5.8 km/h 8 km/h 62% 0.0 mm
07:14 16.5 °C 9.2 °C 1010.4 hPa SSO 3.8 km/h 9.3 km/h 62% 0.0 mm
07:19 16.4 °C 9.2 °C 1010.4 hPa SE 3.2 km/h 9.7 km/h 62.3% 0.0 mm
07:24 16.2 °C 9.3 °C 1010.4 hPa SSE 4.6 km/h 12.2 km/h 63.6% 0.0 mm
07:29 16.1 °C 9.3 °C 1010.4 hPa SE 5 km/h 13 km/h 64% 0.0 mm
07:34 16.1 °C 9.3 °C 1010.4 hPa SSE 6.5 km/h 11.3 km/h 64% 0.0 mm
07:39 16.2 °C 9.4 °C 1010.5 hPa SE 6.9 km/h 8.4 km/h 64% 0.0 mm
07:44 16.2 °C 9.3 °C 1010.5 hPa SE 6 km/h 9.3 km/h 64% 0.0 mm
07:49 16 °C 9.3 °C 1010.5 hPa SSE 5.8 km/h 13 km/h 64.7% 0.0 mm
07:54 15.9 °C 9.3 °C 1010.6 hPa SO 6.7 km/h 12.9 km/h 65% 0.0 mm
07:59 16.2 °C 9.5 °C 1010.6 hPa SO 6.9 km/h 8 km/h 64.8% 0.0 mm
08:04 16.4 °C 9.5 °C 1010.6 hPa OSO 5.3 km/h 8.4 km/h 63.7% 0.0 mm
08:09 16.8 °C 9.6 °C 1010.6 hPa SO 5 km/h 8.4 km/h 62.2% 0.0 mm
08:14 17.3 °C 9.7 °C 1010.6 hPa OSO 5 km/h 8.4 km/h 61.1% 0.0 mm
08:19 17.4 °C 9.8 °C 1010.6 hPa OSO 5 km/h 8 km/h 61% 0.0 mm
08:24 17.5 °C 9.9 °C 1010.7 hPa SO 5 km/h 8 km/h 60.8% 0.0 mm
08:29 17.6 °C 10 °C 1010.7 hPa OSO 5 km/h 8 km/h 60.8% 0.0 mm
08:34 17.8 °C 9.9 °C 1010.7 hPa OSO 4.1 km/h 6.4 km/h 60% 0.0 mm
08:39 18.1 °C 10.2 °C 1011.0 hPa SE 3.9 km/h 7.6 km/h 60% 0.0 mm
08:44 18.3 °C 10.3 °C 1011.0 hPa SE 3.9 km/h 11.9 km/h 60% 0.0 mm
08:49 18 °C 10.3 °C 1011.0 hPa SE 3.9 km/h 11.3 km/h 60.7% 0.0 mm
08:54 17.8 °C 10.2 °C 1011.1 hPa SSE 6.2 km/h 11.3 km/h 61% 0.0 mm
08:59 18 °C 10.4 °C 1011.1 hPa SSE 6.9 km/h 9.5 km/h 61% 0.0 mm
09:04 18.1 °C 10.4 °C 1011.1 hPa Sur 6 km/h 9.7 km/h 61% 0.0 mm
09:09 18.2 °C 10.6 °C 1011.1 hPa Sur 5.8 km/h 9.7 km/h 61% 0.0 mm
09:14 18.4 °C 10.7 °C 1011.0 hPa Sur 5.8 km/h 10 km/h 60.9% 0.0 mm
09:19 18.7 °C 10.9 °C 1011.0 hPa Sur 5.8 km/h 9.7 km/h 60.5% 0.0 mm
09:24 18.9 °C 11 °C 1011.0 hPa SO 6.3 km/h 9.7 km/h 60% 0.0 mm
09:29 19.2 °C 11.2 °C 1011.0 hPa OSO 6.5 km/h 10 km/h 59.5% 0.0 mm
09:34 19.6 °C 11.4 °C 1011.0 hPa Oeste 5.3 km/h 11.1 km/h 59% 0.0 mm
09:39 20.1 °C 11.7 °C 1011.0 hPa Oeste 5 km/h 14.8 km/h 58.5% 0.0 mm
09:44 20.4 °C 11.7 °C 1011.0 hPa Oeste 7 km/h 14.8 km/h 57.4% 0.0 mm
09:49 20.6 °C 11.8 °C 1011.0 hPa Oeste 7.6 km/h 16.7 km/h 57% 0.0 mm
09:54 20.8 °C 11.9 °C 1011.1 hPa OSO 9.5 km/h 16.1 km/h 57% 0.0 mm
09:59 21 °C 12.1 °C 1011.1 hPa SO 10 km/h 14.5 km/h 57% 0.0 mm
10:04 21.2 °C 12.3 °C 1011.1 hPa OSO 7.5 km/h 13 km/h 57% 0.0 mm
10:09 21.3 °C 12.4 °C 1011.1 hPa SSO 6.9 km/h 12.9 km/h 56.5% 0.0 mm
10:14 21.7 °C 12.4 °C 1011.1 hPa SSO 5.4 km/h 9.7 km/h 55.6% 0.0 mm
10:19 21.8 °C 12.3 °C 1011.1 hPa SO 5 km/h 9.7 km/h 54.9% 0.0 mm
10:24 21.9 °C 12.3 °C 1011.1 hPa Oeste 5 km/h 9.7 km/h 54.4% 0.0 mm
10:29 22.2 °C 12.3 °C 1011.0 hPa SO 5 km/h 11.1 km/h 53.7% 0.0 mm
10:34 22.3 °C 12.4 °C 1011.0 hPa SSE 5 km/h 11.3 km/h 53.7% 0.0 mm
10:39 22.5 °C 12.5 °C 1011.0 hPa SSE 5 km/h 13 km/h 53% 0.0 mm
10:44 22.3 °C 12.5 °C 1010.8 hPa SE 6.1 km/h 13 km/h 53.7% 0.0 mm
10:49 22.2 °C 12.5 °C 1010.8 hPa SSE 6.5 km/h 13.7 km/h 54% 0.0 mm
10:54 22.2 °C 12.5 °C 1010.8 hPa SSE 8 km/h 14.5 km/h 54% 0.0 mm
10:59 22.3 °C 12.5 °C 1010.8 hPa Sur 8.4 km/h 11.3 km/h 54% 0.0 mm
11:04 22.5 °C 12.5 °C 1010.8 hPa SE 5.6 km/h 8 km/h 53.3% 0.0 mm
11:09 22.8 °C 12.6 °C 1010.8 hPa SSE 5 km/h 13 km/h 52.6% 0.0 mm
11:14 23 °C 12.5 °C 1010.7 hPa SSE 6.1 km/h 12.9 km/h 51.8% 0.0 mm
11:19 23.3 °C 12.5 °C 1010.7 hPa SE 6.5 km/h 9.7 km/h 51% 0.0 mm
11:24 23.6 °C 12.6 °C 1010.7 hPa SE 5.1 km/h 10 km/h 50.3% 0.0 mm
11:29 23.8 °C 12.8 °C 1010.5 hPa SSE 4.7 km/h 11.1 km/h 50% 0.0 mm
11:34 23.9 °C 12.6 °C 1010.5 hPa SO 4.7 km/h 13 km/h 49.1% 0.0 mm
11:39 23.9 °C 12.6 °C 1010.5 hPa SSO 4.7 km/h 12.9 km/h 49.2% 0.0 mm
11:44 23.9 °C 12.6 °C 1010.2 hPa Sur 6.1 km/h 14.8 km/h 49% 0.0 mm
11:49 24.1 °C 12.8 °C 1010.2 hPa Sur 6.5 km/h 14.8 km/h 49% 0.0 mm
11:54 24.3 °C 12.7 °C 1010.2 hPa Sur 5.9 km/h 12.2 km/h 48.3% 0.0 mm
11:59 24.3 °C 12.5 °C 1010.2 hPa SSE 5.8 km/h 16.7 km/h 47.6% 0.0 mm
12:04 24.3 °C 12.6 °C 1010.2 hPa Sur 8.8 km/h 16.1 km/h 47.9% 0.0 mm
12:09 24.2 °C 12.2 °C 1010.2 hPa OSO 9.5 km/h 11.3 km/h 47.1% 0.0 mm
12:14 24.3 °C 12.4 °C 1009.9 hPa Oeste 6.6 km/h 9.7 km/h 47.6% 0.0 mm
12:19 24.5 °C 12.4 °C 1009.9 hPa SSO 5.8 km/h 9.7 km/h 46.9% 0.0 mm
12:24 24.7 °C 12.5 °C 1009.9 hPa SSO 4.3 km/h 10 km/h 46.5% 0.0 mm
12:29 24.9 °C 12.2 °C 1009.7 hPa SSO 3.9 km/h 9.7 km/h 45.3% 0.0 mm
12:34 24.8 °C 12.1 °C 1009.7 hPa OSO 5.4 km/h 11.1 km/h 44.9% 0.0 mm
12:39 24.7 °C 11.7 °C 1009.7 hPa SO 5.8 km/h 13 km/h 44% 0.0 mm
12:44 24.8 °C 11.8 °C 1009.4 hPa SSO 5.8 km/h 12.9 km/h 44.4% 0.0 mm
12:49 24.9 °C 11.8 °C 1009.4 hPa Oeste 5.8 km/h 13.7 km/h 43.8% 0.0 mm
12:54 25.1 °C 11.4 °C 1009.4 hPa Oeste 6.3 km/h 14.5 km/h 42.3% 0.0 mm
12:59 25.2 °C 11.3 °C 1009.0 hPa Oeste 6.5 km/h 16.7 km/h 42% 0.0 mm
13:04 25.3 °C 11.2 °C 1009.0 hPa OSO 6.9 km/h 16.1 km/h 41.4% 0.0 mm
13:09 25.3 °C 11.1 °C 1009.0 hPa ONO 6.9 km/h 17.2 km/h 40.9% 0.0 mm
13:14 25.3 °C 11.1 °C 1008.6 hPa SO 8.3 km/h 17.7 km/h 40.9% 0.0 mm
13:19 25.5 °C 10.9 °C 1008.6 hPa SSO 8.7 km/h 16.7 km/h 40% 0.0 mm
13:24 25.6 °C 10.8 °C 1008.6 hPa OSO 9.3 km/h 19.8 km/h 39.6% 0.0 mm
13:29 25.6 °C 10.7 °C 1008.4 hPa SO 9.5 km/h 20.9 km/h 39.1% 0.0 mm
13:34 25.6 °C 10.9 °C 1008.4 hPa Oeste 9.5 km/h 20.9 km/h 39.7% 0.0 mm
13:39 25.6 °C 10.9 °C 1008.4 hPa Oeste 9.5 km/h 20.9 km/h 39.7% 0.0 mm
13:44 25.6 °C 10.7 °C 1007.9 hPa SO 9.9 km/h 19.3 km/h 39.1% 0.0 mm
13:49 25.4 °C 10.5 °C 1007.9 hPa OSO 10 km/h 20.9 km/h 39.1% 0.0 mm
13:54 25.6 °C 10.4 °C 1007.9 hPa SO 10 km/h 20.9 km/h 38.6% 0.0 mm
13:59 25.7 °C 10.3 °C 1007.7 hPa Oeste 10 km/h 17.7 km/h 38% 0.0 mm
14:04 25.8 °C 10.3 °C 1007.7 hPa SO 10 km/h 16.1 km/h 37.6% 0.0 mm
14:09 25.9 °C 10.2 °C 1007.7 hPa SO 10 km/h 19.8 km/h 37.2% 0.0 mm
14:14 26 °C 10.4 °C 1007.5 hPa Oeste 8.7 km/h 20.9 km/h 37.6% 0.0 mm
14:19 25.8 °C 10.2 °C 1007.5 hPa Oeste 8.4 km/h 20.9 km/h 37.4% 0.0 mm
14:24 25.8 °C 10.3 °C 1007.5 hPa Oeste 8.6 km/h 19.3 km/h 37.8% 0.0 mm
14:29 25.9 °C 10.4 °C 1007.3 hPa Oeste 8.7 km/h 16.7 km/h 37.8% 0.0 mm
14:34 26.2 °C 10.3 °C 1007.3 hPa Oeste 7.3 km/h 18.5 km/h 37.1% 0.0 mm
14:39 26.1 °C 10.3 °C 1007.3 hPa ONO 6.9 km/h 19.3 km/h 37.1% 0.0 mm
14:44 25.9 °C 10.1 °C 1007.0 hPa ONO 9 km/h 19.3 km/h 37% 0.0 mm
14:49 26 °C 10.2 °C 1007.0 hPa ONO 9.5 km/h 17.2 km/h 37% 0.0 mm
14:54 26.2 °C 10.4 °C 1007.0 hPa ONO 8.6 km/h 17.7 km/h 37.2% 0.0 mm
14:59 26.2 °C 10.2 °C 1006.7 hPa ONO 8.4 km/h 24.1 km/h 36.5% 0.0 mm
15:04 26.3 °C 10 °C 1006.7 hPa OSO 10 km/h 24.1 km/h 35.9% 0.0 mm
15:09 26.4 °C 9.7 °C 1006.7 hPa OSO 10.3 km/h 25.1 km/h 35% 0.0 mm
15:14 26.5 °C 9.8 °C 1006.6 hPa OSO 11.8 km/h 25.7 km/h 35% 0.0 mm
15:19 26.6 °C 9.9 °C 1006.6 hPa SO 12.2 km/h 12.9 km/h 35% 0.0 mm
15:24 26.7 °C 9.9 °C 1006.6 hPa Oeste 7.2 km/h 18.5 km/h 35% 0.0 mm
15:29 26.8 °C 9.9 °C 1006.4 hPa Oeste 5.8 km/h 19.3 km/h 34.8% 0.0 mm
15:34 26.8 °C 9.7 °C 1006.4 hPa ONO 9.3 km/h 22.5 km/h 34% 0.0 mm
15:39 26.8 °C 9.6 °C 1006.4 hPa OSO 10.3 km/h 22.5 km/h 34% 0.0 mm
15:44 26.9 °C 9.6 °C 1006.3 hPa SO 11.6 km/h 22.5 km/h 33.7% 0.0 mm
15:49 27 °C 9.8 °C 1006.3 hPa Oeste 11.9 km/h 20.9 km/h 33.9% 0.0 mm
15:54 26.9 °C 10.7 °C 1006.4 hPa ONO 10 km/h 22.2 km/h 36.3% 0.0 mm
15:59 26.5 °C 11 °C 1006.4 hPa ONO 9.5 km/h 27.8 km/h 37.9% 0.0 mm
16:04 26.2 °C 11 °C 1006.4 hPa ONO 13.9 km/h 27.4 km/h 38.6% 0.0 mm
16:09 26 °C 10.9 °C 1006.5 hPa ONO 14.8 km/h 24.1 km/h 39% 0.0 mm
16:14 25.9 °C 10.9 °C 1006.5 hPa ONO 13.4 km/h 22.5 km/h 39% 0.0 mm
16:19 25.8 °C 10.7 °C 1006.5 hPa ONO 13 km/h 27.4 km/h 38.7% 0.0 mm
16:24 25.7 °C 10.3 °C 1006.5 hPa ONO 15.1 km/h 27.8 km/h 38% 0.0 mm
16:29 25.7 °C 10.3 °C 1006.3 hPa ONO 15.6 km/h 28.2 km/h 38% 0.0 mm
16:34 25.5 °C 10.1 °C 1006.3 hPa NO 16.2 km/h 27.8 km/h 38% 0.0 mm
16:39 25.4 °C 10.1 °C 1006.3 hPa NO 16.4 km/h 25.7 km/h 38% 0.0 mm
16:44 25.4 °C 10 °C 1006.3 hPa NO 13.2 km/h 19.8 km/h 37.9% 0.0 mm
16:49 25.4 °C 10.1 °C 1006.3 hPa NO 12.2 km/h 20.9 km/h 38% 0.0 mm
16:54 25.4 °C 9.8 °C 1006.3 hPa NO 10.5 km/h 18.5 km/h 37.3% 0.0 mm
16:59 25.3 °C 9.6 °C 1006.1 hPa NO 10 km/h 19.3 km/h 37% 0.0 mm
17:04 25.3 °C 9.6 °C 1006.1 hPa NO 8.9 km/h 16.7 km/h 37% 0.0 mm
17:09 25.2 °C 9.8 °C 1006.1 hPa NO 8.7 km/h 17.2 km/h 37.8% 0.0 mm
17:14 25.1 °C 9.8 °C 1005.9 hPa ONO 10 km/h 17.7 km/h 38% 0.0 mm
17:19 25.1 °C 9.8 °C 1005.9 hPa ONO 10.3 km/h 15.6 km/h 38% 0.0 mm
17:24 25 °C 9.7 °C 1005.9 hPa ONO 8.8 km/h 18.5 km/h 38% 0.0 mm
17:29 24.9 °C 9.9 °C 1005.9 hPa ONO 8.4 km/h 19.3 km/h 38.8% 0.0 mm
17:34 24.8 °C 9.9 °C 1005.9 hPa ONO 9.6 km/h 19 km/h 38.9% 0.0 mm
17:39 24.7 °C 9.8 °C 1006.0 hPa ONO 10 km/h 20.1 km/h 39% 0.0 mm
17:44 24.6 °C 9.7 °C 1006.0 hPa ONO 11.8 km/h 20.9 km/h 39% 0.0 mm
17:49 24.4 °C 9.6 °C 1006.0 hPa ONO 12.2 km/h 22.2 km/h 39% 0.0 mm
17:54 24.5 °C 9.7 °C 1006.2 hPa ONO 11.3 km/h 22.5 km/h 39.2% 0.0 mm
17:59 24.3 °C 9.9 °C 1006.2 hPa ONO 11.1 km/h 22.5 km/h 40% 0.0 mm
18:04 24.2 °C 10 °C 1006.2 hPa Oeste 12 km/h 25.9 km/h 40.6% 0.0 mm
18:09 24.2 °C 10.1 °C 1006.4 hPa Oeste 12.2 km/h 25.7 km/h 41% 0.0 mm
18:14 24 °C 10.2 °C 1006.4 hPa ONO 9.2 km/h 20.1 km/h 41.7% 0.0 mm
18:19 23.8 °C 10 °C 1006.4 hPa ONO 8.4 km/h 24.1 km/h 41.7% 0.0 mm
18:24 23.7 °C 9.7 °C 1006.6 hPa ONO 10.5 km/h 27.8 km/h 41.2% 0.0 mm
18:29 23.6 °C 9.6 °C 1006.6 hPa Oeste 11.1 km/h 27.4 km/h 41% 0.0 mm
18:34 23.4 °C 9.4 °C 1006.6 hPa Oeste 13.3 km/h 23.3 km/h 40.9% 0.0 mm
18:39 23.3 °C 8.7 °C 1006.7 hPa Oeste 14 km/h 29.6 km/h 39.4% 0.0 mm
18:44 23.2 °C 8.4 °C 1006.7 hPa Oeste 13.8 km/h 29.6 km/h 38.8% 0.0 mm
18:49 23.1 °C 8.1 °C 1006.7 hPa Oeste 13.7 km/h 27.4 km/h 38.3% 0.0 mm
18:54 22.9 °C 7.9 °C 1007.0 hPa ONO 15.6 km/h 27.8 km/h 38.2% 0.0 mm
18:59 22.8 °C 8.2 °C 1007.0 hPa Oeste 16.1 km/h 27.4 km/h 39% 0.0 mm
19:04 22.7 °C 8 °C 1007.0 hPa Oeste 14.1 km/h 34.3 km/h 39% 0.0 mm
19:09 22.7 °C 8 °C 1007.3 hPa Oeste 13.7 km/h 35.2 km/h 39% 0.0 mm
19:14 22.7 °C 8 °C 1007.3 hPa Oeste 17.1 km/h 35.4 km/h 39% 0.0 mm
19:19 22.7 °C 8 °C 1007.3 hPa Oeste 18 km/h 30.6 km/h 39% 0.0 mm
19:24 22.6 °C 7.9 °C 1007.4 hPa Oeste 14.9 km/h 26.2 km/h 39% 0.0 mm
19:29 22.5 °C 8 °C 1007.4 hPa Oeste 14 km/h 25.7 km/h 39.3% 0.0 mm
19:34 22.3 °C 8.1 °C 1007.4 hPa Oeste 13.7 km/h 24.1 km/h 40% 0.0 mm
19:39 22.3 °C 8 °C 1007.5 hPa OSO 13.7 km/h 22.5 km/h 40% 0.0 mm
19:44 22.2 °C 8.3 °C 1007.5 hPa OSO 12.3 km/h 22.5 km/h 40.9% 0.0 mm
19:49 22.2 °C 8.3 °C 1007.5 hPa OSO 11.9 km/h 22.5 km/h 41% 0.0 mm
19:54 22.1 °C 8.2 °C 1007.7 hPa OSO 12.2 km/h 22.5 km/h 41% 0.0 mm
19:59 22 °C 8.1 °C 1007.7 hPa OSO 12.2 km/h 20.9 km/h 41% 0.0 mm
20:04 21.9 °C 8.1 °C 1007.7 hPa OSO 11.3 km/h 20.9 km/h 41% 0.0 mm
20:09 22 °C 8.1 °C 1007.7 hPa OSO 11.1 km/h 22 km/h 41% 0.0 mm
20:14 22 °C 8.2 °C 1007.7 hPa OSO 12 km/h 22.5 km/h 41.3% 0.0 mm
20:19 21.9 °C 8.4 °C 1007.7 hPa Oeste 12.2 km/h 22.5 km/h 42% 0.0 mm
20:24 21.9 °C 8.4 °C 1007.9 hPa Oeste 12 km/h 20.9 km/h 42% 0.0 mm
20:29 21.8 °C 8.3 °C 1007.9 hPa OSO 11.9 km/h 20.1 km/h 42% 0.0 mm
20:34 21.8 °C 8.3 °C 1007.9 hPa OSO 10.4 km/h 20.9 km/h 42% 0.0 mm
20:39 21.7 °C 8.3 °C 1008.0 hPa OSO 10 km/h 16.7 km/h 42% 0.0 mm
20:44 21.8 °C 8.3 °C 1008.0 hPa OSO 10 km/h 20.4 km/h 42% 0.0 mm
20:49 21.7 °C 8.3 °C 1008.0 hPa OSO 10 km/h 20.9 km/h 42% 0.0 mm
20:54 21.7 °C 8.2 °C 1008.0 hPa SO 10 km/h 17.7 km/h 42% 0.0 mm
20:59 21.6 °C 8.1 °C 1008.0 hPa OSO 10 km/h 14.5 km/h 42% 0.0 mm
21:04 21.5 °C 8.3 °C 1008.0 hPa OSO 8.9 km/h 14.8 km/h 43% 0.0 mm
21:09 21.3 °C 8.2 °C 1008.1 hPa OSO 8.7 km/h 14.8 km/h 43% 0.0 mm
21:14 21.2 °C 8.2 °C 1008.1 hPa OSO 8.4 km/h 14.8 km/h 43% 0.0 mm
21:19 21.2 °C 8.1 °C 1008.1 hPa OSO 8.4 km/h 14.8 km/h 43% 0.0 mm
21:24 21.2 °C 8.1 °C 1008.1 hPa OSO 9.3 km/h 18.5 km/h 43% 0.0 mm
21:29 21.2 °C 8.1 °C 1008.0 hPa OSO 9.5 km/h 22.5 km/h 42.8% 0.0 mm
21:34 21.4 °C 7.8 °C 1008.0 hPa OSO 11.4 km/h 27.8 km/h 41.4% 0.0 mm
21:39 21.7 °C 7.8 °C 1008.1 hPa OSO 11.9 km/h 27.4 km/h 41% 0.0 mm
21:44 21.7 °C 7.9 °C 1008.1 hPa OSO 14.2 km/h 24.1 km/h 41% 0.0 mm
21:49 21.6 °C 7.7 °C 1008.1 hPa OSO 14.8 km/h 22.5 km/h 41% 0.0 mm
21:54 21.4 °C 7.6 °C 1008.1 hPa OSO 11.9 km/h 19.3 km/h 41% 0.0 mm
21:59 21.3 °C 7.9 °C 1008.1 hPa OSO 11.1 km/h 19.3 km/h 42% 0.0 mm
22:04 21.3 °C 7.9 °C 1008.1 hPa OSO 9.8 km/h 19.3 km/h 42% 0.0 mm
22:09 21.2 °C 7.8 °C 1008.1 hPa SO 9.5 km/h 20.9 km/h 42% 0.0 mm
22:14 21.2 °C 7.8 °C 1008.0 hPa SO 10.8 km/h 20.9 km/h 42% 0.0 mm
22:19 21.2 °C 7.8 °C 1008.0 hPa SO 11.1 km/h 14.8 km/h 42% 0.0 mm
22:24 21.1 °C 7.7 °C 1008.0 hPa SSO 9.2 km/h 12.9 km/h 42% 0.0 mm
22:29 20.9 °C 7.9 °C 1007.8 hPa SSE 8.7 km/h 14.8 km/h 43.3% 0.0 mm
22:34 20.4 °C 8.1 °C 1007.8 hPa SSE 8.4 km/h 14.5 km/h 45.2% 0.0 mm
22:39 20.1 °C 8.1 °C 1007.8 hPa SSE 8.4 km/h 14.8 km/h 46.2% 0.0 mm
22:44 19.9 °C 8 °C 1007.8 hPa SSE 9.3 km/h 14.8 km/h 46.2% 0.0 mm
22:49 20.1 °C 7.9 °C 1007.8 hPa Sur 9.5 km/h 14.8 km/h 45.5% 0.0 mm
22:54 20.2 °C 7.9 °C 1007.8 hPa Sur 8 km/h 14.5 km/h 45% 0.0 mm
22:59 20.2 °C 7.9 °C 1007.6 hPa Sur 7.6 km/h 16.7 km/h 45% 0.0 mm
23:04 20.1 °C 8 °C 1007.6 hPa Sur 8.5 km/h 16.1 km/h 45.8% 0.0 mm
23:09 19.9 °C 8 °C 1007.6 hPa SSO 8.7 km/h 14.8 km/h 46.3% 0.0 mm
23:14 19.8 °C 8.2 °C 1007.4 hPa SSO 7.8 km/h 11.3 km/h 47% 0.0 mm
23:19 19.8 °C 8.2 °C 1007.4 hPa SSO 7.6 km/h 11.1 km/h 47% 0.0 mm
23:24 19.8 °C 8.1 °C 1007.4 hPa SSO 7.1 km/h 13.7 km/h 47% 0.0 mm
23:29 19.8 °C 8.3 °C 1007.2 hPa SSO 6.9 km/h 16.7 km/h 47.6% 0.0 mm
23:34 19.8 °C 8.4 °C 1007.2 hPa SSO 8.3 km/h 16.1 km/h 47.9% 0.0 mm
23:39 19.8 °C 8.2 °C 1007.2 hPa SSO 8.7 km/h 19 km/h 47% 0.0 mm
23:44 20 °C 8.2 °C 1007.0 hPa SSO 10.6 km/h 19.3 km/h 46.6% 0.0 mm
23:49 20.1 °C 8.1 °C 1007.0 hPa SSO 11.1 km/h 19.3 km/h 46% 0.0 mm
23:54 20.2 °C 8.1 °C 1007.0 hPa SSO 11.7 km/h 19.3 km/h 45.5% 0.0 mm
23:59 20.2 °C 7.9 °C 1007.0 hPa SSO 11.9 km/h 28.2 km/h 45% 0.0 mm
Murcia-Puente Tocinos, España
Compliments of Weather Underground - 2.75 mb

La estación de MeteoMurcia.com, publica sus datos en los siguientes proyectos:

Weather Underground PWS IMURCIAP2 Meteoclimatic www.awekas.at

W3Counter
Web Analytics